Time;durP1;ratioP1;P1;durP2;ratioP2;P2;SDS_P1;SDS_P2;PMS_P1;PMS_P2;Temp;Humidity;BMP_temperature;BMP_pressure;BME280_temperature;BME280_humidity;BME280_pressure;Samples;Min_cycle;Max_cycle;Signal;HPM_P1;HPM_P2
2023/09/23 00:02:22;;;;;;;4.97;2.28;;;12.70;99.90;;;;;;5074118;28;20135;-59
2023/09/23 00:04:48;;;;;;;4.50;2.30;;;12.80;99.90;;;;;;5073839;28;20045;-59
2023/09/23 00:07:14;;;;;;;4.80;2.20;;;12.80;99.90;;;;;;5072546;28;20048;-60
2023/09/23 00:09:39;;;;;;;5.07;2.40;;;12.80;99.90;;;;;;5073761;28;20036;-59
2023/09/23 00:12:06;;;;;;;4.75;2.20;;;12.70;99.90;;;;;;5073520;28;20084;-59
2023/09/23 00:14:32;;;;;;;6.35;2.65;;;12.80;99.90;;;;;;5073760;28;20041;-59
2023/09/23 00:16:58;;;;;;;6.50;2.70;;;12.90;99.90;;;;;;5073706;28;20443;-59
2023/09/23 00:19:24;;;;;;;5.88;2.72;;;12.70;99.90;;;;;;5073767;28;20136;-59
2023/09/23 00:21:50;;;;;;;5.15;2.22;;;12.60;99.90;;;;;;5072155;28;20036;-59
2023/09/23 00:24:16;;;;;;;6.55;2.22;;;12.60;99.90;;;;;;5073379;28;20055;-59
2023/09/23 00:26:42;;;;;;;5.60;2.42;;;12.50;99.90;;;;;;5073292;28;20052;-59
2023/09/23 00:29:08;;;;;;;5.57;2.08;;;12.50;99.90;;;;;;5073360;28;20055;-59
2023/09/23 00:31:34;;;;;;;5.45;2.28;;;12.60;99.90;;;;;;5073495;28;20412;-58
2023/09/23 00:33:59;;;;;;;4.47;1.80;;;12.60;99.90;;;;;;5073058;28;20040;-60
2023/09/23 00:36:25;;;;;;;5.25;1.80;;;12.50;99.90;;;;;;5073059;28;20041;-59
2023/09/23 00:38:51;;;;;;;3.90;1.60;;;12.60;99.90;;;;;;5072075;28;20040;-59
2023/09/23 00:41:17;;;;;;;4.85;1.80;;;12.50;99.90;;;;;;5073030;28;20087;-59
2023/09/23 00:43:43;;;;;;;4.10;1.70;;;12.40;99.90;;;;;;5071616;28;20045;-59
2023/09/23 00:46:10;;;;;;;4.25;1.60;;;12.50;99.90;;;;;;5073110;28;20436;-59
2023/09/23 00:48:43;;;;;;;2.80;1.10;;;12.40;99.90;;;;;;5072779;28;20048;-60
2023/09/23 00:51:10;;;;;;;4.43;1.30;;;12.50;99.90;;;;;;5072787;28;20044;-59
2023/09/23 00:53:39;;;;;;;4.47;1.35;;;12.30;99.90;;;;;;5072693;28;20462;-59
2023/09/23 00:56:07;;;;;;;4.05;1.30;;;12.30;99.90;;;;;;5072692;28;20093;-59
2023/09/23 00:58:36;;;;;;;3.65;1.27;;;12.40;99.90;;;;;;5072216;28;20391;-44
2023/09/23 01:01:02;;;;;;;3.75;1.40;;;12.30;99.90;;;;;;5072837;28;20036;-48
2023/09/23 01:03:30;;;;;;;3.90;1.35;;;12.40;99.90;;;;;;5072578;28;20575;-44
2023/09/23 01:06:03;;;;;;;3.35;1.08;;;12.30;99.90;;;;;;5072533;28;20051;-44
2023/09/23 01:08:32;;;;;;;5.10;1.15;;;12.30;99.90;;;;;;5072778;28;20078;-45
2023/09/23 01:10:59;;;;;;;3.15;1.10;;;12.30;99.90;;;;;;5072412;28;20493;-49
2023/09/23 01:13:29;;;;;;;4.13;1.05;;;12.30;99.90;;;;;;5072281;28;20084;-46
2023/09/23 01:15:55;;;;;;;3.90;1.13;;;12.20;99.90;;;;;;5072488;28;20040;-44
2023/09/23 01:18:28;;;;;;;3.15;1.05;;;12.20;99.90;;;;;;5072411;28;20488;-44
2023/09/23 01:20:58;;;;;;;4.10;1.30;;;12.20;99.90;;;;;;5072569;28;20109;-48
2023/09/23 01:23:24;;;;;;;3.97;1.40;;;12.30;99.90;;;;;;5072326;28;20524;-47
2023/09/23 01:25:50;;;;;;;3.50;1.20;;;12.30;99.90;;;;;;5072441;28;20119;-45
2023/09/23 01:28:15;;;;;;;3.35;1.08;;;12.30;99.90;;;;;;5072409;28;20047;-44
2023/09/23 01:30:43;;;;;;;3.42;1.38;;;12.30;99.90;;;;;;5072251;28;20044;-58
2023/09/23 01:33:10;;;;;;;3.53;1.20;;;12.30;99.90;;;;;;5072177;28;20045;-58
2023/09/23 01:35:36;;;;;;;4.78;1.38;;;12.30;99.90;;;;;;5072181;28;20028;-59
2023/09/23 01:38:03;;;;;;;4.18;1.50;;;12.30;99.90;;;;;;5072506;28;20029;-48
2023/09/23 01:40:34;;;;;;;4.97;1.55;;;12.30;99.90;;;;;;5072542;28;20445;-44
2023/09/23 01:43:01;;;;;;;4.72;1.45;;;12.30;99.90;;;;;;5072138;28;20137;-45
2023/09/23 01:45:28;;;;;;;4.53;1.60;;;12.30;99.90;;;;;;5072193;28;20546;-44
2023/09/23 01:47:57;;;;;;;4.25;1.40;;;12.30;99.90;;;;;;5072311;28;20443;-44
2023/09/23 01:50:27;;;;;;;4.32;1.48;;;12.30;99.90;;;;;;5072223;28;20032;-46
2023/09/23 01:52:55;;;;;;;4.80;1.90;;;12.40;99.90;;;;;;5071966;28;20044;-58
2023/09/23 01:55:21;;;;;;;3.95;1.48;;;12.40;99.90;;;;;;5072242;28;20049;-59
2023/09/23 01:57:48;;;;;;;5.80;1.60;;;12.30;99.90;;;;;;5072097;28;20043;-59
2023/09/23 02:00:28;;;;;;;3.60;1.48;;;12.40;99.90;;;;;;5071996;28;20040;-59
2023/09/23 02:02:57;;;;;;;4.57;1.73;;;12.30;99.90;;;;;;5072068;28;20037;-58
2023/09/23 02:05:27;;;;;;;4.68;1.55;;;12.30;99.90;;;;;;5071905;28;20488;-59
2023/09/23 02:07:53;;;;;;;6.00;1.73;;;12.30;99.90;;;;;;5072051;28;20106;-59
2023/09/23 02:10:22;;;;;;;4.40;1.58;;;12.20;99.90;;;;;;5071921;28;20044;-58
2023/09/23 02:12:47;;;;;;;4.25;1.60;;;12.30;99.90;;;;;;5075499;28;20061;-45
2023/09/23 02:15:14;;;;;;;6.25;1.60;;;12.20;99.90;;;;;;5074506;28;20040;-45
2023/09/23 02:17:42;;;;;;;3.72;1.38;;;12.20;99.90;;;;;;5075864;28;20106;-45
2023/09/23 02:20:12;;;;;;;3.38;1.38;;;12.00;99.90;;;;;;5075921;28;20045;-44
2023/09/23 02:22:37;;;;;;;5.45;1.65;;;12.00;99.90;;;;;;5075919;28;20131;-45
2023/09/23 02:25:04;;;;;;;5.43;1.80;;;12.00;99.90;;;;;;5075765;28;20132;-47
2023/09/23 02:27:30;;;;;;;4.00;1.50;;;12.00;99.90;;;;;;5075641;28;20036;-44
2023/09/23 02:29:56;;;;;;;5.05;1.65;;;12.10;99.90;;;;;;5075316;28;20052;-44
2023/09/23 02:32:21;;;;;;;4.18;1.60;;;12.00;99.90;;;;;;5075714;28;20119;-44
2023/09/23 02:34:47;;;;;;;5.55;1.80;;;11.90;99.90;;;;;;5075646;28;20052;-44
2023/09/23 02:37:13;;;;;;;4.93;1.77;;;12.00;99.90;;;;;;5075689;28;20048;-46
2023/09/23 02:39:38;;;;;;;5.07;1.80;;;11.90;99.90;;;;;;5075435;28;20032;-49
2023/09/23 02:42:05;;;;;;;5.82;2.10;;;12.00;99.90;;;;;;5074137;28;20040;-45
2023/09/23 02:44:31;;;;;;;4.85;1.90;;;11.90;99.90;;;;;;5073931;28;20052;-47
2023/09/23 02:46:56;;;;;;;5.85;2.13;;;11.90;99.90;;;;;;5075514;28;20039;-47
2023/09/23 02:49:22;;;;;;;6.28;2.40;;;11.90;99.90;;;;;;5075410;28;20448;-46
2023/09/23 02:51:49;;;;;;;5.25;2.42;;;11.90;99.90;;;;;;5075360;28;20075;-49
2023/09/23 02:54:17;;;;;;;7.30;3.03;;;12.00;99.90;;;;;;5075041;28;20049;-48
2023/09/23 02:56:46;;;;;;;6.05;2.60;;;11.90;99.90;;;;;;5075086;28;20115;-48
2023/09/23 02:59:15;;;;;;;6.93;3.35;;;11.90;99.90;;;;;;5075428;28;21089;-44
2023/09/23 03:01:48;;;;;;;6.32;3.50;;;11.80;99.90;;;;;;5075027;28;20115;-58
2023/09/23 03:04:19;;;;;;;6.75;4.15;;;11.80;99.90;;;;;;5074979;28;20051;-47
2023/09/23 03:06:49;;;;;;;6.95;3.70;;;11.80;99.90;;;;;;5075291;28;20068;-45
2023/09/23 03:09:23;;;;;;;9.07;4.38;;;11.80;99.90;;;;;;5075118;28;20044;-46
2023/09/23 03:11:55;;;;;;;8.50;4.82;;;11.80;99.90;;;;;;5074888;28;20084;-58
2023/09/23 03:14:38;;;;;;;9.75;3.83;;;11.80;99.90;;;;;;5074526;28;20512;-58
2023/09/23 03:17:04;;;;;;;9.10;4.50;;;11.70;99.90;;;;;;5074747;28;20075;-58
2023/09/23 03:19:32;;;;;;;8.70;5.00;;;11.80;99.90;;;;;;5074710;28;20040;-57
2023/09/23 03:21:58;;;;;;;8.50;4.30;;;11.80;99.90;;;;;;5074316;28;20115;-58
2023/09/23 03:24:26;;;;;;;7.78;4.95;;;11.90;99.90;;;;;;5074571;28;20071;-58
2023/09/23 03:26:58;;;;;;;8.63;5.25;;;11.80;99.90;;;;;;5074733;28;20088;-59
2023/09/23 03:29:32;;;;;;;9.20;5.40;;;11.80;99.90;;;;;;5074526;28;20051;-59
2023/09/23 03:31:59;;;;;;;9.82;6.18;;;11.70;99.90;;;;;;5073260;28;20061;-58
2023/09/23 03:34:26;;;;;;;9.27;6.03;;;11.70;99.90;;;;;;5074275;28;20124;-58
2023/09/23 03:36:53;;;;;;;9.10;6.30;;;11.80;99.90;;;;;;5074661;28;20102;-49
2023/09/23 03:39:19;;;;;;;9.23;6.40;;;11.70;99.90;;;;;;5074306;28;20045;-44
2023/09/23 03:41:46;;;;;;;8.60;5.68;;;11.70;99.90;;;;;;5074254;28;20041;-58
2023/09/23 03:44:14;;;;;;;9.45;6.18;;;11.70;99.90;;;;;;5074567;28;20081;-58
2023/09/23 03:46:45;;;;;;;9.65;6.63;;;11.80;99.90;;;;;;5074502;28;20101;-59
2023/09/23 03:49:10;;;;;;;10.23;6.75;;;11.80;99.90;;;;;;5074084;28;20434;-59
2023/09/23 03:51:37;;;;;;;12.93;6.90;;;11.80;99.90;;;;;;5073988;28;20085;-59
2023/09/23 03:54:06;;;;;;;10.57;7.10;;;11.60;99.90;;;;;;5074172;28;20040;-47
2023/09/23 03:56:33;;;;;;;10.32;6.55;;;11.60;99.90;;;;;;5074120;28;20086;-45
2023/09/23 03:59:00;;;;;;;12.18;7.10;;;11.60;99.90;;;;;;5073875;28;20048;-47
2023/09/23 04:01:25;;;;;;;9.88;6.65;;;11.70;99.90;;;;;;5073991;28;20040;-46
2023/09/23 04:03:51;;;;;;;12.35;6.93;;;11.60;99.90;;;;;;5074180;28;20384;-47
2023/09/23 04:06:17;;;;;;;12.93;7.68;;;11.70;99.90;;;;;;5073796;28;20051;-49
2023/09/23 04:08:43;;;;;;;11.25;8.32;;;11.60;99.90;;;;;;5074009;28;20115;-44
2023/09/23 04:11:10;;;;;;;10.38;7.70;;;11.70;99.90;;;;;;5073698;28;20044;-46
2023/09/23 04:13:37;;;;;;;10.88;7.82;;;11.70;99.90;;;;;;5073409;28;20471;-58
2023/09/23 04:16:05;;;;;;;11.50;7.65;;;11.70;99.90;;;;;;5073589;28;20627;-58
2023/09/23 04:18:31;;;;;;;10.20;7.43;;;11.60;99.90;;;;;;5073797;28;20048;-58
2023/09/23 04:20:57;;;;;;;10.65;7.90;;;11.60;99.90;;;;;;5073481;28;20032;-58
2023/09/23 04:23:23;;;;;;;15.23;7.80;;;11.60;99.90;;;;;;5073393;28;20499;-58
2023/09/23 04:25:52;;;;;;;12.10;7.88;;;11.60;99.90;;;;;;5073479;28;20120;-59
2023/09/23 04:28:22;;;;;;;12.07;8.18;;;11.60;99.90;;;;;;5073415;28;20115;-46
2023/09/23 04:30:55;;;;;;;11.43;8.23;;;11.60;99.90;;;;;;5073589;28;20043;-48
2023/09/23 04:33:22;;;;;;;12.52;8.32;;;11.60;99.90;;;;;;5072633;28;20037;-47
2023/09/23 04:35:48;;;;;;;11.23;7.75;;;11.60;99.90;;;;;;5073077;28;20127;-46
2023/09/23 04:38:15;;;;;;;13.15;8.63;;;11.70;99.90;;;;;;5073421;28;20052;-44
2023/09/23 04:40:42;;;;;;;13.43;8.77;;;11.60;99.90;;;;;;5071951;28;20539;-44
2023/09/23 04:43:10;;;;;;;11.48;7.97;;;11.60;99.90;;;;;;5073007;28;20511;-44
2023/09/23 04:45:36;;;;;;;13.55;8.77;;;11.60;99.90;;;;;;5073027;28;20480;-58
2023/09/23 04:48:03;;;;;;;13.07;9.38;;;11.70;99.90;;;;;;5073149;28;20057;-59
2023/09/23 04:50:29;;;;;;;12.55;8.75;;;11.60;99.90;;;;;;5073044;28;20136;-59
2023/09/23 04:52:55;;;;;;;11.90;8.93;;;11.50;99.90;;;;;;5072952;28;20526;-59
2023/09/23 04:55:22;;;;;;;11.80;8.82;;;11.50;99.90;;;;;;5072888;28;20064;-59
2023/09/23 04:57:47;;;;;;;13.32;9.55;;;11.60;99.90;;;;;;5072708;28;20044;-59
2023/09/23 05:00:18;;;;;;;13.77;8.20;;;11.60;99.90;;;;;;5073068;28;20036;-59
2023/09/23 05:02:43;;;;;;;11.02;8.00;;;11.50;99.90;;;;;;5072907;28;20036;-46
2023/09/23 05:05:09;;;;;;;13.43;8.98;;;11.60;99.90;;;;;;5072930;28;20476;-45
2023/09/23 05:07:37;;;;;;;12.85;8.82;;;11.50;99.90;;;;;;5071536;28;20450;-45
2023/09/23 05:10:05;;;;;;;13.10;7.97;;;11.50;99.90;;;;;;5072465;28;20060;-47
2023/09/23 05:12:31;;;;;;;11.07;8.52;;;11.50;99.90;;;;;;5072274;28;20433;-46
2023/09/23 05:14:57;;;;;;;11.48;8.23;;;11.50;99.90;;;;;;5072365;28;20045;-44
2023/09/23 05:17:26;;;;;;;10.55;7.40;;;11.40;99.90;;;;;;5054705;28;20503;-59
2023/09/23 05:19:52;;;;;;;10.68;7.30;;;11.40;99.90;;;;;;5072188;28;20051;-59
2023/09/23 05:22:18;;;;;;;10.93;7.72;;;11.40;99.90;;;;;;5072217;28;20036;-59
2023/09/23 05:24:50;;;;;;;11.38;8.43;;;11.30;99.90;;;;;;5072178;28;20113;-58
2023/09/23 05:27:16;;;;;;;10.32;7.40;;;11.30;99.90;;;;;;5072111;28;20512;-58
2023/09/23 05:29:43;;;;;;;10.77;7.15;;;11.30;99.90;;;;;;5072302;28;20072;-59
2023/09/23 05:32:12;;;;;;;11.02;7.53;;;11.30;99.90;;;;;;5072255;28;20804;-46
2023/09/23 05:34:42;;;;;;;10.57;6.78;;;11.30;99.90;;;;;;5072248;28;20048;-48
2023/09/23 05:37:11;;;;;;;12.30;6.97;;;11.30;99.90;;;;;;5072188;28;20559;-47
2023/09/23 05:39:37;;;;;;;16.02;7.80;;;11.20;99.90;;;;;;5072061;28;20043;-44
2023/09/23 05:42:04;;;;;;;12.20;7.65;;;11.20;99.90;;;;;;5072495;28;20036;-49
2023/09/23 05:44:29;;;;;;;14.00;7.45;;;11.20;99.90;;;;;;5072126;28;20055;-47
2023/09/23 05:46:55;;;;;;;10.40;7.22;;;11.20;99.90;;;;;;5072003;28;20048;-48
2023/09/23 05:49:22;;;;;;;10.57;6.85;;;11.20;99.90;;;;;;5072008;28;20040;-46
2023/09/23 05:51:52;;;;;;;10.63;7.28;;;11.30;99.90;;;;;;5072024;28;20055;-46
2023/09/23 05:54:20;;;;;;;11.00;7.18;;;11.30;99.90;;;;;;5071867;28;20040;-60
2023/09/23 05:56:46;;;;;;;11.90;7.28;;;11.30;99.90;;;;;;5071886;28;20055;-60
2023/09/23 05:59:11;;;;;;;10.60;6.53;;;11.30;99.90;;;;;;5070773;28;20036;-60
2023/09/23 06:01:40;;;;;;;11.30;6.70;;;11.20;99.90;;;;;;5071964;28;20040;-60
2023/09/23 06:04:06;;;;;;;10.95;7.57;;;11.30;99.90;;;;;;5071911;28;20069;-45
2023/09/23 06:06:32;;;;;;;10.48;6.90;;;11.40;99.90;;;;;;5071765;28;20048;-46
2023/09/23 06:08:58;;;;;;;10.90;7.43;;;11.20;99.90;;;;;;5071970;28;20101;-47
2023/09/23 06:11:24;;;;;;;11.55;7.05;;;11.30;99.90;;;;;;5071915;28;20613;-50
2023/09/23 06:13:49;;;;;;;11.75;7.13;;;11.40;99.90;;;;;;5071981;28;20116;-45
2023/09/23 06:16:16;;;;;;;12.70;7.75;;;11.50;99.90;;;;;;5071757;28;20476;-60
2023/09/23 06:18:42;;;;;;;11.23;8.13;;;11.40;99.90;;;;;;5071688;28;20508;-60
2023/09/23 06:21:08;;;;;;;13.77;7.70;;;11.40;99.90;;;;;;5071503;28;20037;-60
2023/09/23 06:23:34;;;;;;;12.48;8.57;;;11.40;99.90;;;;;;5071675;28;20120;-46
2023/09/23 06:26:05;;;;;;;12.05;7.80;;;11.50;99.90;;;;;;5071894;28;20047;-46
2023/09/23 06:28:35;;;;;;;10.35;7.35;;;11.50;99.90;;;;;;5070687;28;20131;-46
2023/09/23 06:31:01;;;;;;;12.80;7.53;;;11.60;99.90;;;;;;5071650;28;20036;-46
2023/09/23 06:33:28;;;;;;;15.38;8.50;;;11.60;99.90;;;;;;5071680;28;20048;-60
2023/09/23 06:35:54;;;;;;;12.93;7.57;;;11.60;99.90;;;;;;5071816;28;20036;-59
2023/09/23 06:38:20;;;;;;;12.40;8.32;;;11.80;99.90;;;;;;5071561;28;20079;-60
2023/09/23 06:40:45;;;;;;;13.68;7.95;;;11.80;99.90;;;;;;5071660;28;20042;-59
2023/09/23 06:43:12;;;;;;;14.88;8.93;;;11.80;99.90;;;;;;5071840;28;20115;-60
2023/09/23 06:45:38;;;;;;;13.98;8.93;;;11.90;99.90;;;;;;5071545;28;20556;-60
2023/09/23 06:48:05;;;;;;;13.20;9.38;;;12.00;99.90;;;;;;5071460;28;20055;-59
2023/09/23 06:50:31;;;;;;;16.13;9.43;;;11.90;99.90;;;;;;5071354;28;20045;-60
2023/09/23 06:52:57;;;;;;;12.05;8.63;;;12.10;99.90;;;;;;5071658;28;20043;-60
2023/09/23 06:55:23;;;;;;;13.75;8.82;;;12.10;99.90;;;;;;5070010;28;20041;-60
2023/09/23 06:57:48;;;;;;;13.55;9.13;;;12.10;99.90;;;;;;5073307;28;20542;-60
2023/09/23 07:00:16;;;;;;;16.88;10.50;;;12.10;99.90;;;;;;5075010;28;20043;-59
2023/09/23 07:02:41;;;;;;;14.52;9.85;;;12.20;99.90;;;;;;5075023;28;20111;-60
2023/09/23 07:05:08;;;;;;;18.20;10.68;;;12.30;99.90;;;;;;5075279;28;20441;-60
2023/09/23 07:07:33;;;;;;;14.50;10.27;;;12.30;99.90;;;;;;5075030;28;20045;-47
2023/09/23 07:09:59;;;;;;;15.70;10.38;;;12.40;99.90;;;;;;5075079;28;20056;-49
2023/09/23 07:12:25;;;;;;;16.92;10.73;;;12.40;99.90;;;;;;5074694;28;20057;-47
2023/09/23 07:14:51;;;;;;;16.30;10.43;;;12.30;99.90;;;;;;5074692;28;20059;-49
2023/09/23 07:17:17;;;;;;;16.20;10.38;;;12.60;99.90;;;;;;5074601;28;20094;-50
2023/09/23 07:19:46;;;;;;;15.77;10.40;;;12.40;99.90;;;;;;5074830;28;20048;-46
2023/09/23 07:22:12;;;;;;;17.95;11.80;;;12.50;99.90;;;;;;5074697;28;20047;-45
2023/09/23 07:24:38;;;;;;;16.25;10.90;;;12.50;99.90;;;;;;5074640;28;20047;-49
2023/09/23 07:27:04;;;;;;;16.13;10.18;;;12.50;99.90;;;;;;5074711;28;20091;-49
2023/09/23 07:29:32;;;;;;;16.50;11.10;;;12.70;99.90;;;;;;5075015;28;20048;-45
2023/09/23 07:31:58;;;;;;;16.52;10.70;;;12.90;99.90;;;;;;5074606;28;20055;-45
2023/09/23 07:34:23;;;;;;;17.00;10.73;;;13.00;99.90;;;;;;5074671;28;20123;-46
2023/09/23 07:36:49;;;;;;;17.85;10.27;;;13.20;99.90;;;;;;5074607;28;20036;-49
2023/09/23 07:39:15;;;;;;;17.27;10.25;;;13.50;99.90;;;;;;5074648;28;20033;-45
2023/09/23 07:41:41;;;;;;;14.57;9.77;;;13.60;99.90;;;;;;5074521;28;20044;-45
2023/09/23 07:44:07;;;;;;;15.20;10.52;;;13.70;99.90;;;;;;5074425;28;20128;-46
2023/09/23 07:46:32;;;;;;;18.67;10.30;;;13.70;99.90;;;;;;5074756;28;20072;-49
2023/09/23 07:48:58;;;;;;;16.85;10.38;;;13.70;99.90;;;;;;5074166;28;20120;-46
2023/09/23 07:51:24;;;;;;;14.15;9.35;;;13.60;99.90;;;;;;5074200;28;20499;-46
2023/09/23 07:53:53;;;;;;;17.80;8.85;;;13.70;99.90;;;;;;5074023;28;20373;-47
2023/09/23 07:56:19;;;;;;;18.17;10.52;;;13.70;99.90;;;;;;5074017;28;20032;-46
2023/09/23 07:58:45;;;;;;;15.50;9.50;;;13.60;99.90;;;;;;5073839;28;20040;-47
2023/09/23 08:01:10;;;;;;;14.75;8.88;;;13.70;99.90;;;;;;5073825;28;20101;-49
2023/09/23 08:03:36;;;;;;;14.13;9.75;;;13.70;99.90;;;;;;5073736;28;20124;-47
2023/09/23 08:06:02;;;;;;;15.15;8.32;;;13.60;99.90;;;;;;5072715;28;20291;-46
2023/09/23 08:08:27;;;;;;;17.73;9.05;;;13.60;99.90;;;;;;5073868;28;20041;-49
2023/09/23 08:10:53;;;;;;;14.80;8.85;;;13.60;99.90;;;;;;5073797;28;20442;-47
2023/09/23 08:13:20;;;;;;;12.95;9.15;;;13.70;99.90;;;;;;5073385;28;20522;-46
2023/09/23 08:15:46;;;;;;;14.13;9.02;;;13.70;99.90;;;;;;5072331;28;20040;-45
2023/09/23 08:18:12;;;;;;;16.55;8.57;;;13.80;99.90;;;;;;5073780;28;20447;-49
2023/09/23 08:20:41;;;;;;;16.98;9.55;;;13.90;99.90;;;;;;5073602;28;20052;-45
2023/09/23 08:23:07;;;;;;;16.77;9.75;;;13.90;99.90;;;;;;5073744;28;20040;-50
2023/09/23 08:25:34;;;;;;;16.00;10.05;;;14.00;99.90;;;;;;5073313;28;20044;-47
2023/09/23 08:28:01;;;;;;;17.30;9.68;;;14.00;99.90;;;;;;5073404;28;20048;-46
2023/09/23 08:30:26;;;;;;;13.45;8.73;;;14.00;99.90;;;;;;5073380;28;20547;-46
2023/09/23 08:32:53;;;;;;;14.63;9.55;;;14.00;99.90;;;;;;5073521;28;20040;-50
2023/09/23 08:35:18;;;;;;;16.20;10.02;;;14.20;99.90;;;;;;5071926;28;20048;-48
2023/09/23 08:37:45;;;;;;;15.40;9.20;;;14.30;99.90;;;;;;5073413;28;20044;-48
2023/09/23 08:40:12;;;;;;;15.52;8.05;;;14.30;99.90;;;;;;5073127;28;20044;-49
2023/09/23 08:42:38;;;;;;;13.50;7.95;;;14.50;99.90;;;;;;5072990;28;20037;-50
2023/09/23 08:45:08;;;;;;;12.60;7.25;;;14.40;99.90;;;;;;5073252;28;20129;-48
2023/09/23 08:47:37;;;;;;;12.63;6.88;;;14.40;99.90;;;;;;5073219;28;20072;-49
2023/09/23 08:50:06;;;;;;;12.70;7.63;;;14.50;99.90;;;;;;5073096;28;20047;-60
2023/09/23 08:52:32;;;;;;;12.32;7.03;;;14.70;99.90;;;;;;5072899;28;20041;-60
2023/09/23 08:54:59;;;;;;;14.63;7.70;;;14.80;99.90;;;;;;5072890;28;20491;-60
2023/09/23 08:57:25;;;;;;;14.75;7.72;;;14.80;99.90;;;;;;5073047;28;20036;-60
2023/09/23 08:59:51;;;;;;;11.68;6.97;;;14.80;99.90;;;;;;5073293;28;20029;-60
2023/09/23 09:02:26;;;;;;;12.45;6.40;;;14.80;99.90;;;;;;5072962;28;20116;-60
2023/09/23 09:04:54;;;;;;;9.73;5.50;;;14.90;99.90;;;;;;5072707;28;20040;-60
2023/09/23 09:07:25;;;;;;;10.43;4.93;;;15.00;99.90;;;;;;5072583;28;20105;-60
2023/09/23 09:09:51;;;;;;;10.90;4.43;;;15.00;99.90;;;;;;5072337;28;20113;-60
2023/09/23 09:12:17;;;;;;;11.60;4.43;;;15.10;99.90;;;;;;5072368;28;20052;-60
2023/09/23 09:14:48;;;;;;;11.00;4.53;;;15.10;99.90;;;;;;5072416;28;20052;-60
2023/09/23 09:17:15;;;;;;;9.67;4.03;;;15.30;99.90;;;;;;5072468;28;20067;-60
2023/09/23 09:19:40;;;;;;;8.75;4.18;;;15.40;99.90;;;;;;5070688;28;20040;-59
2023/09/23 09:22:07;;;;;;;8.52;3.65;;;15.30;99.90;;;;;;5072171;28;20469;-60
2023/09/23 09:24:33;;;;;;;7.80;3.50;;;15.30;99.90;;;;;;5072372;28;20044;-60
2023/09/23 09:26:59;;;;;;;7.10;3.13;;;15.30;99.90;;;;;;5072151;28;20508;-59
2023/09/23 09:29:25;;;;;;;8.32;3.63;;;15.20;99.90;;;;;;5071975;28;20045;-46
2023/09/23 09:31:52;;;;;;;8.57;3.10;;;15.20;99.90;;;;;;5072125;28;20481;-45
2023/09/23 09:34:23;;;;;;;6.13;3.00;;;15.10;99.90;;;;;;5072240;28;20053;-47
2023/09/23 09:36:56;;;;;;;8.27;3.30;;;15.10;99.90;;;;;;5071956;28;20032;-46
2023/09/23 09:39:28;;;;;;;6.97;3.08;;;15.30;99.90;;;;;;5072385;28;20203;-46
2023/09/23 09:41:56;;;;;;;7.93;4.07;;;15.50;99.90;;;;;;5072439;28;20040;-49
2023/09/23 09:44:27;;;;;;;6.55;3.30;;;15.70;99.90;;;;;;5070656;28;20060;-45
2023/09/23 09:46:55;;;;;;;9.80;3.53;;;15.80;99.90;;;;;;5072294;28;20056;-50
2023/09/23 09:49:24;;;;;;;6.32;2.80;;;15.80;99.90;;;;;;5071669;28;20072;-46
2023/09/23 09:51:50;;;;;;;9.05;2.92;;;15.70;98.50;;;;;;5071804;28;20043;-60
2023/09/23 09:54:25;;;;;;;8.85;2.80;;;15.60;99.20;;;;;;5071765;28;20369;-60
2023/09/23 09:56:52;;;;;;;7.85;2.75;;;15.60;99.90;;;;;;5071913;28;20044;-60
2023/09/23 09:59:30;;;;;;;8.10;3.08;;;15.50;99.90;;;;;;5071787;28;20044;-60
2023/09/23 10:01:57;;;;;;;7.57;2.90;;;15.30;99.90;;;;;;5071932;28;20048;-60
2023/09/23 10:04:27;;;;;;;9.88;2.90;;;15.20;99.90;;;;;;5071823;28;20052;-60
2023/09/23 10:06:54;;;;;;;6.72;2.67;;;15.10;99.90;;;;;;5070851;28;20166;-59
2023/09/23 10:09:30;;;;;;;7.38;2.72;;;15.00;99.90;;;;;;5072044;28;20051;-59
2023/09/23 10:11:58;;;;;;;8.00;3.33;;;15.00;99.90;;;;;;5071657;28;20103;-59
2023/09/23 10:14:25;;;;;;;9.52;3.10;;;14.90;99.90;;;;;;5071734;28;20052;-59
2023/09/23 10:16:59;;;;;;;6.63;2.83;;;15.10;99.90;;;;;;5071995;28;20090;-60
2023/09/23 10:19:49;;;;;;;7.53;3.00;;;15.30;99.90;;;;;;5072032;28;20098;-60
2023/09/23 10:22:21;;;;;;;5.32;2.97;;;15.40;99.90;;;;;;5071852;28;20044;-60
2023/09/23 10:25:00;;;;;;;;;;;15.50;99.90;;;;;;5072153;28;20469;-60
2023/09/23 10:27:26;;;;;;;6.75;2.10;;;15.70;99.90;;;;;;5071887;28;20295;-60
2023/09/23 10:29:52;;;;;;;9.95;2.63;;;15.70;99.90;;;;;;5072030;28;20044;-60
2023/09/23 10:32:18;;;;;;;7.05;3.35;;;15.90;99.90;;;;;;5072998;28;20047;-60
2023/09/23 10:34:58;;;;;;;8.73;3.70;;;15.80;99.90;;;;;;5075452;28;20090;-45
2023/09/23 10:37:35;;;;;;;8.63;3.90;;;15.90;99.90;;;;;;5075482;28;20086;-46
2023/09/23 10:40:25;;;;;;;7.18;3.60;;;15.90;99.90;;;;;;5075370;28;20052;-46
2023/09/23 10:42:51;;;;;;;8.07;3.50;;;16.00;99.90;;;;;;5075270;28;20400;-47
2023/09/23 10:45:17;;;;;;;7.75;2.47;;;15.90;99.90;;;;;;5075343;28;20040;-45
2023/09/23 10:47:44;;;;;;;4.70;1.30;;;15.80;99.90;;;;;;5075440;28;20448;-45
2023/09/23 10:50:10;;;;;;;4.53;1.30;;;15.80;89.70;;;;;;5075332;28;20362;-47
2023/09/23 10:52:36;;;;;;;4.10;0.90;;;15.80;67.80;;;;;;5075408;28;20041;-47
2023/09/23 10:55:02;;;;;;;4.50;1.00;;;15.80;76.30;;;;;;5075335;28;20076;-47
2023/09/23 10:57:28;;;;;;;5.75;1.10;;;16.10;64.70;;;;;;5074968;28;20484;-50
2023/09/23 10:59:56;;;;;;;3.55;1.23;;;16.40;84.30;;;;;;5073853;28;20045;-46
2023/09/23 11:02:25;;;;;;;4.93;1.50;;;16.50;67.40;;;;;;5074894;28;20045;-47
2023/09/23 11:04:54;;;;;;;4.45;1.30;;;16.60;63.20;;;;;;5075265;28;20108;-45
2023/09/23 11:07:20;;;;;;;6.95;1.55;;;16.60;74.90;;;;;;5074972;28;20437;-45
2023/09/23 11:09:46;;;;;;;6.20;1.20;;;16.40;59.20;;;;;;5074994;28;20123;-47
2023/09/23 11:12:13;;;;;;;4.15;1.48;;;16.30;70.30;;;;;;5074629;28;20064;-46
2023/09/23 11:14:45;;;;;;;4.22;1.15;;;16.30;58.80;;;;;;5074846;28;20454;-50
2023/09/23 11:17:31;;;;;;;3.47;0.80;;;16.20;44.40;;;;;;5074716;28;20036;-48
2023/09/23 11:19:59;;;;;;;3.70;1.08;;;16.10;36.50;;;;;;5074930;28;20075;-55
2023/09/23 11:22:29;;;;;;;3.38;1.00;;;16.10;32.50;;;;;;5074479;28;20564;-60
2023/09/23 11:24:56;;;;;;;3.42;0.90;;;16.00;25.50;;;;;;5074429;28;20079;-60
2023/09/23 11:27:22;;;;;;;4.82;1.00;;;16.00;39.50;;;;;;5074564;28;20049;-48
2023/09/23 11:29:49;;;;;;;3.45;1.20;;;16.10;54.70;;;;;;5074138;28;20100;-60
2023/09/23 11:32:20;;;;;;;3.47;0.93;;;16.30;41.50;;;;;;5074525;28;20384;-60
2023/09/23 11:34:46;;;;;;;3.13;0.85;;;16.50;45.60;;;;;;5074342;28;20043;-59
2023/09/23 11:37:12;;;;;;;3.45;1.10;;;16.50;30.80;;;;;;5074312;28;20396;-60
2023/09/23 11:39:37;;;;;;;2.88;0.90;;;16.40;28.80;;;;;;5073042;28;20039;-60
2023/09/23 11:42:04;;;;;;;2.25;0.77;;;16.40;24.60;;;;;;5072922;28;20481;-60
2023/09/23 11:44:29;;;;;;;1.98;0.70;;;15.80;23.10;;;;;;5073965;28;20040;-60
2023/09/23 11:46:55;;;;;;;4.05;0.95;;;15.20;65.40;;;;;;5074345;28;20054;-60
2023/09/23 11:49:21;;;;;;;2.25;0.75;;;14.90;69.20;;;;;;5074242;28;20118;-59
2023/09/23 11:51:47;;;;;;;4.32;1.23;;;14.70;93.30;;;;;;5074139;28;20044;-60
2023/09/23 11:54:13;;;;;;;2.90;1.00;;;14.60;99.90;;;;;;5072959;28;20050;-60
2023/09/23 11:56:38;;;;;;;4.78;1.30;;;14.70;99.90;;;;;;5074240;28;20037;-59
2023/09/23 11:59:04;;;;;;;3.90;1.10;;;14.70;99.90;;;;;;5072936;28;20049;-60
2023/09/23 12:01:30;;;;;;;4.30;1.20;;;14.80;99.90;;;;;;5072684;28;20101;-60
2023/09/23 12:03:58;;;;;;;5.25;1.30;;;14.80;99.90;;;;;;5074192;28;20158;-60
2023/09/23 12:06:25;;;;;;;3.55;1.00;;;14.80;99.90;;;;;;5073875;28;20052;-46
2023/09/23 12:08:51;;;;;;;4.38;1.10;;;15.00;99.90;;;;;;5073557;28;20056;-45
2023/09/23 12:11:21;;;;;;;2.30;1.00;;;15.40;99.90;;;;;;5073948;28;20049;-47
2023/09/23 12:13:53;;;;;;;1.88;0.82;;;15.50;99.90;;;;;;5073634;28;20052;-60
2023/09/23 12:16:19;;;;;;;2.53;1.00;;;15.60;99.90;;;;;;5073736;28;20401;-48
2023/09/23 12:18:47;;;;;;;2.17;1.00;;;15.80;99.90;;;;;;5072398;28;20469;-47
2023/09/23 12:21:16;;;;;;;2.78;1.02;;;16.10;99.90;;;;;;5073381;28;20041;-46
2023/09/23 12:23:42;;;;;;;4.32;1.10;;;16.20;99.90;;;;;;5073529;28;20043;-60
2023/09/23 12:26:09;;;;;;;4.15;1.27;;;16.30;99.90;;;;;;5073449;28;20041;-60
2023/09/23 12:28:40;;;;;;;2.67;1.10;;;16.30;98.00;;;;;;5073285;28;20040;-61
2023/09/23 12:31:05;;;;;;;3.65;1.20;;;16.40;98.80;;;;;;5073300;28;20047;-60
2023/09/23 12:33:31;;;;;;;4.22;1.40;;;16.50;99.90;;;;;;5073553;28;20036;-60
2023/09/23 12:35:57;;;;;;;4.68;1.20;;;16.70;96.00;;;;;;5073245;28;20036;-60
2023/09/23 12:38:23;;;;;;;2.42;1.15;;;16.90;89.50;;;;;;5072241;28;20041;-61
2023/09/23 12:40:49;;;;;;;4.93;1.35;;;17.10;75.00;;;;;;5073304;28;20105;-51
2023/09/23 12:43:14;;;;;;;3.85;1.20;;;17.10;54.00;;;;;;5073011;28;20037;-60
2023/09/23 12:45:41;;;;;;;2.85;1.10;;;17.30;50.30;;;;;;5073060;28;20079;-60